Time;durP1;ratioP1;P1;durP2;ratioP2;P2;SDS_P1;SDS_P2;PMS_P1;PMS_P2;Temp;Humidity;BMP_temperature;BMP_pressure;BME280_temperature;BME280_humidity;BME280_pressure;Samples;Min_cycle;Max_cycle;Signal;HPM_P1;HPM_P2
2022/04/06 00:00:31;;;;;;;;;;;9.00;99.90;;;;;;5091677;28;20019;-69
2022/04/06 00:02:58;;;;;;;;;;;9.00;99.90;;;;;;5106103;28;20014;-69
2022/04/06 00:05:25;;;;;;;;;;;9.00;99.90;;;;;;5098925;28;19928;-69
2022/04/06 00:07:52;;;;;;;;;;;9.00;99.90;;;;;;5099142;28;19967;-69
2022/04/06 00:10:18;;;;;;;;;;;8.90;99.90;;;;;;5095264;28;19970;-70
2022/04/06 00:12:45;;;;;;;;;;;8.90;99.90;;;;;;5105753;28;19934;-69
2022/04/06 00:15:12;;;;;;;;;;;8.80;99.90;;;;;;5086873;28;19923;-70
2022/04/06 00:17:40;;;;;;;;;;;8.70;99.90;;;;;;5101722;28;20014;-70
2022/04/06 00:20:07;;;;;;;;;;;8.70;99.90;;;;;;5100922;28;20023;-70
2022/04/06 00:22:34;;;;;;;;;;;8.60;99.90;;;;;;5099854;28;19967;-70
2022/04/06 00:25:00;;;;;;;;;;;8.50;99.90;;;;;;5093720;28;19931;-70
2022/04/06 00:27:27;;;;;;;;;;;8.50;99.90;;;;;;5101857;28;20031;-70
2022/04/06 00:29:53;;;;;;;;;;;8.50;99.90;;;;;;5076658;28;20792;-70
2022/04/06 00:32:20;;;;;;;;;;;8.50;99.90;;;;;;5101243;28;19932;-69
2022/04/06 00:37:35;;;;;;;;;;;8.40;99.90;;;;;;5095669;28;19977;-70
2022/04/06 00:40:04;;;;;;;;;;;8.40;99.90;;;;;;5100381;28;19978;-70
2022/04/06 00:42:31;;;;;;;;;;;8.40;99.90;;;;;;5099934;28;20031;-69
2022/04/06 00:44:58;;;;;;;;;;;8.40;99.90;;;;;;5103366;28;19962;-69
2022/04/06 00:47:24;;;;;;;;;;;8.40;99.90;;;;;;5094468;28;20309;-69
2022/04/06 00:49:51;;;;;;;;;;;8.40;99.90;;;;;;5099511;28;20004;-69
2022/04/06 00:52:18;;;;;;;;;;;8.40;99.90;;;;;;5105182;28;20010;-70
2022/04/06 00:54:46;;;;;;;;;;;8.40;99.90;;;;;;5088425;28;19966;-69
2022/04/06 00:57:13;;;;;;;;;;;8.40;99.90;;;;;;5102207;28;19966;-69
2022/04/06 00:59:55;;;;;;;;;;;8.40;99.90;;;;;;5103308;28;20397;-69
2022/04/06 01:02:25;;;;;;;;;;;8.40;99.90;;;;;;5095063;28;19924;-69
2022/04/06 01:04:51;;;;;;;;;;;8.50;99.90;;;;;;5098626;28;19972;-69
2022/04/06 01:07:20;;;;;;;;;;;8.50;99.90;;;;;;5100055;28;19924;-69
2022/04/06 01:09:46;;;;;;;;;;;8.50;99.90;;;;;;5096450;28;20363;-69
2022/04/06 01:12:13;;;;;;;;;;;8.50;99.90;;;;;;5097791;28;19938;-69
2022/04/06 01:14:40;;;;;;;;;;;8.50;99.90;;;;;;5099315;28;19924;-69
2022/04/06 01:17:10;;;;;;;;;;;8.60;99.90;;;;;;5079461;28;19924;-69
2022/04/06 01:19:41;;;;;;;;;;;8.60;99.90;;;;;;5098544;28;19938;-69
2022/04/06 01:22:11;;;;;;;;;;;8.60;99.90;;;;;;5082360;28;20011;-69
2022/04/06 01:24:38;;;;;;;;;;;8.60;99.90;;;;;;5093867;28;19932;-69
2022/04/06 01:27:06;;;;;;;;;;;8.70;99.90;;;;;;5103160;28;19928;-69
2022/04/06 01:29:33;;;;;;;;;;;8.60;99.90;;;;;;5102889;28;20010;-70
2022/04/06 01:32:26;;;;;;;;;;;8.70;99.90;;;;;;5090695;28;19924;-69
2022/04/06 01:34:54;;;;;;;;;;;8.60;99.90;;;;;;5101329;28;19981;-69
2022/04/06 01:37:22;;;;;;;;;;;8.60;99.90;;;;;;5103260;28;20001;-69
2022/04/06 01:39:49;;;;;;;;;;;8.70;99.90;;;;;;5073085;28;19924;-69
2022/04/06 01:42:19;;;;;;;;;;;8.60;99.90;;;;;;5101488;28;19923;-70
2022/04/06 01:44:46;;;;;;;;;;;8.60;99.90;;;;;;5100538;28;20030;-70
2022/04/06 01:47:15;;;;;;;;;;;8.60;99.90;;;;;;5098256;28;19932;-69
2022/04/06 01:52:27;;;;;;;;;;;8.60;99.90;;;;;;5114512;28;19924;-69
2022/04/06 01:54:56;;;;;;;;;;;8.60;99.90;;;;;;5091567;28;19924;-69
2022/04/06 01:57:25;;;;;;;;;;;8.60;99.90;;;;;;5085085;28;19928;-69
2022/04/06 01:59:52;;;;;;;;;;;8.60;99.90;;;;;;5089179;28;20023;-69
2022/04/06 02:02:20;;;;;;;;;;;8.60;99.90;;;;;;5107083;28;19930;-69
2022/04/06 02:04:47;;;;;;;;;;;8.60;99.90;;;;;;5107524;28;19928;-69
2022/04/06 02:07:14;;;;;;;;;;;8.60;99.90;;;;;;5110146;28;19942;-69
2022/04/06 02:09:43;;;;;;;;;;;8.60;99.90;;;;;;5080543;28;19924;-69
2022/04/06 02:12:10;;;;;;;;;;;8.60;99.90;;;;;;5101216;28;19977;-69
2022/04/06 02:14:38;;;;;;;;;;;8.70;99.90;;;;;;5094610;28;20370;-69
2022/04/06 02:17:06;;;;;;;;;;;8.70;99.90;;;;;;5098574;28;20390;-69
2022/04/06 02:19:37;;;;;;;;;;;8.70;99.90;;;;;;5099999;28;20564;-69
2022/04/06 02:22:04;;;;;;;;;;;8.60;99.90;;;;;;5111221;28;19923;-69
2022/04/06 02:24:31;;;;;;;;;;;8.60;99.90;;;;;;5104068;28;20027;-69
2022/04/06 02:26:58;;;;;;;;;;;8.60;99.90;;;;;;5100181;28;20479;-69
2022/04/06 02:29:25;;;;;;;;;;;8.60;99.90;;;;;;5108733;28;19959;-69
2022/04/06 02:31:52;;;;;;;;;;;8.50;99.90;;;;;;5102126;28;19924;-69
2022/04/06 02:34:19;;;;;;;;;;;8.60;99.90;;;;;;5105464;28;19924;-69
2022/04/06 02:36:45;;;;;;;;;;;8.50;99.90;;;;;;5105649;28;19928;-69
2022/04/06 02:39:12;;;;;;;;;;;8.50;99.90;;;;;;5094760;28;20555;-69
2022/04/06 02:41:39;;;;;;;;;;;8.50;99.90;;;;;;5097990;28;19967;-69
2022/04/06 02:44:06;;;;;;;;;;;8.50;99.90;;;;;;5104038;28;20371;-69
2022/04/06 02:46:32;;;;;;;;;;;8.50;99.90;;;;;;5103604;28;20365;-69
2022/04/06 02:49:01;;;;;;;;;;;8.50;99.90;;;;;;5107703;28;19931;-69
2022/04/06 02:51:28;;;;;;;;;;;8.60;99.90;;;;;;5100434;28;19923;-69
2022/04/06 02:53:55;;;;;;;;;;;8.60;99.90;;;;;;5107098;28;19924;-69
2022/04/06 02:56:22;;;;;;;;;;;8.70;99.90;;;;;;5102532;28;19923;-69
2022/04/06 02:58:48;;;;;;;;;;;8.80;99.90;;;;;;5084906;28;20004;-69
2022/04/06 03:01:15;;;;;;;;;;;8.80;99.90;;;;;;5102924;28;20325;-69
2022/04/06 03:03:42;;;;;;;;;;;8.90;99.90;;;;;;5079844;28;19924;-69
2022/04/06 03:06:09;;;;;;;;;;;8.90;99.90;;;;;;5086774;28;20013;-70
2022/04/06 03:08:35;;;;;;;;;;;9.00;99.90;;;;;;5099087;28;19931;-69
2022/04/06 03:11:03;;;;;;;;;;;9.00;99.90;;;;;;5101248;28;19928;-69
2022/04/06 03:13:29;;;;;;;;;;;9.00;99.90;;;;;;5108242;28;20406;-69
2022/04/06 03:15:56;;;;;;;;;;;9.10;99.90;;;;;;5105934;28;19924;-69
2022/04/06 03:18:23;;;;;;;;;;;9.10;99.90;;;;;;5110559;28;19924;-69
2022/04/06 03:20:50;;;;;;;;;;;9.10;99.90;;;;;;5102868;28;19927;-69
2022/04/06 03:23:22;;;;;;;;;;;9.10;99.90;;;;;;5098735;28;19924;-69
2022/04/06 03:25:49;;;;;;;;;;;9.10;99.90;;;;;;5098720;28;19959;-69
2022/04/06 03:28:16;;;;;;;;;;;9.10;99.90;;;;;;5105921;28;20417;-69
2022/04/06 03:30:42;;;;;;;;;;;9.10;99.90;;;;;;5103058;28;19963;-69
2022/04/06 03:33:09;;;;;;;;;;;9.10;99.90;;;;;;5101620;28;19937;-68
2022/04/06 03:35:36;;;;;;;;;;;9.10;99.90;;;;;;5093588;28;20015;-69
2022/04/06 03:38:03;;;;;;;;;;;9.10;99.90;;;;;;5095712;28;20019;-69
2022/04/06 03:40:32;;;;;;;;;;;9.10;99.90;;;;;;5097436;28;19952;-69
2022/04/06 03:42:58;;;;;;;;;;;9.00;99.90;;;;;;5103217;28;20015;-69
2022/04/06 03:45:25;;;;;;;;;;;9.00;99.90;;;;;;5094658;28;20022;-69
2022/04/06 03:47:52;;;;;;;;;;;9.10;99.90;;;;;;5101487;28;19955;-70
2022/04/06 03:50:19;;;;;;;;;;;9.10;99.90;;;;;;5076218;28;19939;-69
2022/04/06 03:52:45;;;;;;;;;;;9.10;99.90;;;;;;5106790;27;19927;-69
2022/04/06 03:55:12;;;;;;;;;;;9.10;99.90;;;;;;5109223;27;19924;-69
2022/04/06 03:57:39;;;;;;;;;;;9.00;99.90;;;;;;5110254;27;20538;-69
2022/04/06 04:00:08;;;;;;;;;;;9.00;99.90;;;;;;5109791;28;20006;-70
2022/04/06 04:02:35;;;;;;;;;;;9.00;99.90;;;;;;5105129;28;20054;-69
2022/04/06 04:05:03;;;;;;;;;;;9.00;99.90;;;;;;5086951;28;20034;-70
2022/04/06 04:07:37;;;;;;;;;;;9.00;99.90;;;;;;5105868;28;19924;-70
2022/04/06 04:10:08;;;;;;;;;;;9.00;99.90;;;;;;5107296;28;20301;-70
2022/04/06 04:12:35;;;;;;;;;;;9.00;99.90;;;;;;5106431;28;19942;-70
2022/04/06 04:15:02;;;;;;;;;;;9.00;99.90;;;;;;5103096;28;19939;-70
2022/04/06 04:17:29;;;;;;;;;;;9.00;99.90;;;;;;5101128;28;19959;-69
2022/04/06 04:19:55;;;;;;;;;;;9.00;99.90;;;;;;5107272;28;20441;-70
2022/04/06 04:22:22;;;;;;;;;;;9.00;99.90;;;;;;5103215;28;20046;-70
2022/04/06 04:24:49;;;;;;;;;;;8.90;99.90;;;;;;5092920;28;20451;-70
2022/04/06 04:27:16;;;;;;;;;;;8.90;99.90;;;;;;5097406;28;19974;-70
2022/04/06 04:29:42;;;;;;;;;;;8.90;99.90;;;;;;5099399;28;20015;-70
2022/04/06 04:32:10;;;;;;;;;;;8.90;99.90;;;;;;5103554;28;19928;-70
2022/04/06 04:34:37;;;;;;;;;;;8.90;99.90;;;;;;5085285;28;20377;-70
2022/04/06 04:37:07;;;;;;;;;;;8.90;99.90;;;;;;5099778;28;19965;-70
2022/04/06 04:39:34;;;;;;;;;;;8.90;99.90;;;;;;5098962;28;20001;-70
2022/04/06 04:42:00;;;;;;;;;;;8.90;99.90;;;;;;5095313;28;19924;-70
2022/04/06 04:44:27;;;;;;;;;;;8.90;99.90;;;;;;5100985;28;19924;-70
2022/04/06 04:46:54;;;;;;;;;;;8.80;99.90;;;;;;5097878;28;20004;-70
2022/04/06 04:49:21;;;;;;;;;;;8.80;99.90;;;;;;5101580;28;19924;-70
2022/04/06 04:51:48;;;;;;;;;;;8.80;99.90;;;;;;5092346;28;20018;-70
2022/04/06 04:54:16;;;;;;;;;;;8.80;99.90;;;;;;5078477;28;19930;-70
2022/04/06 04:56:43;;;;;;;;;;;8.70;99.90;;;;;;5079468;28;20014;-70
2022/04/06 04:59:10;;;;;;;;;;;8.70;99.90;;;;;;5101211;28;19923;-69
2022/04/06 05:01:37;;;;;;;;;;;8.60;99.90;;;;;;5101615;28;20026;-70
2022/04/06 05:04:04;;;;;;;;;;;8.60;99.90;;;;;;5095325;28;19924;-70
2022/04/06 05:06:30;;;;;;;;;;;8.50;99.90;;;;;;5098639;28;19924;-70
2022/04/06 05:08:57;;;;;;;;;;;8.50;99.90;;;;;;5099326;28;20306;-70
2022/04/06 05:11:24;;;;;;;;;;;8.60;99.90;;;;;;5082572;28;19927;-70
2022/04/06 05:13:51;;;;;;;;;;;8.60;99.90;;;;;;5098397;28;19923;-70
2022/04/06 05:16:18;;;;;;;;;;;8.60;99.90;;;;;;5078109;28;19931;-70
2022/04/06 05:18:44;;;;;;;;;;;8.60;99.90;;;;;;5104330;28;19923;-70
2022/04/06 05:21:11;;;;;;;;;;;8.60;99.90;;;;;;5096891;28;19932;-69
2022/04/06 05:23:38;;;;;;;;;;;8.50;99.90;;;;;;5098858;28;19932;-69
2022/04/06 05:26:04;;;;;;;;;;;8.60;99.90;;;;;;5097648;28;19959;-70
2022/04/06 05:28:31;;;;;;;;;;;8.60;99.90;;;;;;5111620;27;20022;-69
2022/04/06 05:30:58;;;;;;;;;;;8.60;99.90;;;;;;5106058;28;19932;-70
2022/04/06 05:33:25;;;;;;;;;;;8.60;99.90;;;;;;5100927;28;19923;-70
2022/04/06 05:35:52;;;;;;;;;;;8.70;99.90;;;;;;5098312;28;19924;-70
2022/04/06 05:38:19;;;;;;;;;;;8.70;99.90;;;;;;5116249;27;20014;-70
2022/04/06 05:40:46;;;;;;;;;;;8.80;99.90;;;;;;5091069;28;20022;-68
2022/04/06 05:43:12;;;;;;;;;;;8.80;99.90;;;;;;5105444;28;20014;-68
2022/04/06 05:45:39;;;;;;;;;;;8.90;99.90;;;;;;5099491;28;19924;-69
2022/04/06 05:48:06;;;;;;;;;;;9.00;99.90;;;;;;5103750;27;19927;-69
2022/04/06 05:50:33;;;;;;;;;;;9.10;99.90;;;;;;5096926;27;19939;-69
2022/04/06 05:53:00;;;;;;;;;;;9.20;99.90;;;;;;5101394;28;20391;-69
2022/04/06 05:55:29;;;;;;;;;;;9.30;99.90;;;;;;5100414;27;19969;-69
2022/04/06 05:57:55;;;;;;;;;;;9.40;99.90;;;;;;5100738;28;20015;-70
2022/04/06 06:00:22;;;;;;;;;;;9.50;99.90;;;;;;5099155;28;19928;-70
2022/04/06 06:02:51;;;;;;;;;;;9.60;99.90;;;;;;5104257;28;20350;-70
2022/04/06 06:05:20;;;;;;;;;;;9.70;99.90;;;;;;5105028;28;20401;-69
2022/04/06 06:07:47;;;;;;;;;;;9.80;99.90;;;;;;5100677;28;19931;-69
2022/04/06 06:10:14;;;;;;;;;;;9.90;99.90;;;;;;5107227;28;20006;-69
2022/04/06 06:12:40;;;;;;;;;;;9.90;99.90;;;;;;5104653;28;19924;-69
2022/04/06 06:15:07;;;;;;;;;;;9.90;99.90;;;;;;5106842;27;19932;-70
2022/04/06 06:17:37;;;;;;;;;;;9.90;99.90;;;;;;5105911;28;19938;-70
2022/04/06 06:20:05;;;;;;;;;;;9.90;99.90;;;;;;5106640;28;19967;-69
2022/04/06 06:22:31;;;;;;;;;;;9.80;99.90;;;;;;5086934;28;20018;-69
2022/04/06 06:24:58;;;;;;;;;;;9.80;99.90;;;;;;5099521;28;19930;-70
2022/04/06 06:27:25;;;;;;;;;;;9.90;99.90;;;;;;5106652;28;19934;-70
2022/04/06 06:29:51;;;;;;;;;;;9.90;99.90;;;;;;5091627;28;19946;-70
2022/04/06 06:32:18;;;;;;;;;;;10.00;99.90;;;;;;5107009;28;20501;-69
2022/04/06 06:34:45;;;;;;;;;;;10.00;99.90;;;;;;5093664;28;19927;-69
2022/04/06 06:37:11;;;;;;;;;;;10.20;99.90;;;;;;5099761;28;19932;-69
2022/04/06 06:39:38;;;;;;;;;;;10.20;99.90;;;;;;5103354;28;20410;-68
2022/04/06 06:42:05;;;;;;;;;;;10.30;99.90;;;;;;5100338;28;19924;-69
2022/04/06 06:44:32;;;;;;;;;;;10.40;99.90;;;;;;5099896;28;19975;-69
2022/04/06 06:47:02;;;;;;;;;;;10.50;99.90;;;;;;5099692;28;19934;-69
2022/04/06 06:49:29;;;;;;;;;;;10.50;99.90;;;;;;5096154;28;19928;-68
2022/04/06 06:51:55;;;;;;;;;;;10.70;99.90;;;;;;5095773;28;19924;-69
2022/04/06 06:54:22;;;;;;;;;;;10.80;99.90;;;;;;5097642;28;19930;-69
2022/04/06 06:56:49;;;;;;;;;;;10.90;99.90;;;;;;5104344;28;19934;-68
2022/04/06 06:59:16;;;;;;;;;;;11.00;99.90;;;;;;5102270;27;20011;-69
2022/04/06 07:01:42;;;;;;;;;;;11.00;99.90;;;;;;5090049;28;19924;-69
2022/04/06 07:04:13;;;;;;;;;;;11.30;99.90;;;;;;5095163;28;19986;-70
2022/04/06 07:06:39;;;;;;;;;;;11.30;99.90;;;;;;5107000;28;19924;-69
2022/04/06 07:09:06;;;;;;;;;;;11.40;99.90;;;;;;5106678;28;20394;-69
2022/04/06 07:11:33;;;;;;;;;;;11.40;99.90;;;;;;5096763;28;19928;-69
2022/04/06 07:13:59;;;;;;;;;;;11.50;99.90;;;;;;5099026;28;19924;-69
2022/04/06 07:16:26;;;;;;;;;;;11.60;99.90;;;;;;5099835;28;19924;-69
2022/04/06 07:18:53;;;;;;;;;;;11.70;99.90;;;;;;5102486;28;20312;-69
2022/04/06 07:21:20;;;;;;;;;;;11.80;99.90;;;;;;5114623;27;19928;-69
2022/04/06 07:23:47;;;;;;;;;;;11.90;99.90;;;;;;5101231;28;19935;-69
2022/04/06 07:26:19;;;;;;;;;;;12.00;99.90;;;;;;5102721;28;19924;-69
2022/04/06 07:28:45;;;;;;;;;;;12.20;99.90;;;;;;5115557;27;19971;-70
2022/04/06 07:31:13;;;;;;;;;;;12.40;99.90;;;;;;5107369;27;20007;-69
2022/04/06 07:33:40;;;;;;;;;;;12.60;99.90;;;;;;5100168;27;19924;-69
2022/04/06 07:36:09;;;;;;;;;;;12.60;99.90;;;;;;5104404;27;19987;-69
2022/04/06 07:38:43;;;;;;;;;;;12.60;99.90;;;;;;5093311;28;19930;-69
2022/04/06 07:41:09;;;;;;;;;;;12.80;99.90;;;;;;5090554;28;20309;-69
2022/04/06 07:43:36;;;;;;;;;;;12.90;99.90;;;;;;5078064;28;20414;-69
2022/04/06 07:46:03;;;;;;;;;;;13.10;99.90;;;;;;5082638;28;19934;-69
2022/04/06 07:48:30;;;;;;;;;;;13.40;99.90;;;;;;5100383;28;19924;-68
2022/04/06 07:50:57;;;;;;;;;;;13.80;99.90;;;;;;5091136;28;19924;-69
2022/04/06 07:53:23;;;;;;;;;;;13.80;99.90;;;;;;5109434;28;20010;-69
2022/04/06 07:55:51;;;;;;;;;;;13.80;99.90;;;;;;5112259;28;19923;-69
2022/04/06 07:58:18;;;;;;;;;;;13.60;99.90;;;;;;5093356;28;19924;-69
2022/04/06 08:00:45;;;;;;;;;;;13.30;99.90;;;;;;5101523;28;19981;-68
2022/04/06 08:03:12;;;;;;;;;;;13.20;99.90;;;;;;5089571;28;20382;-68
2022/04/06 08:05:39;;;;;;;;;;;13.00;99.90;;;;;;5098127;28;19931;-69
2022/04/06 08:08:06;;;;;;;;;;;13.00;99.90;;;;;;5091482;28;19963;-68
2022/04/06 08:10:33;;;;;;;;;;;12.90;99.90;;;;;;5109190;28;20390;-68
2022/04/06 08:13:04;;;;;;;;;;;13.00;99.90;;;;;;5109617;28;19953;-69
2022/04/06 08:15:31;;;;;;;;;;;13.20;99.90;;;;;;5100691;28;19935;-69
2022/04/06 08:17:58;;;;;;;;;;;13.30;99.90;;;;;;5099638;28;19963;-69
2022/04/06 08:20:26;;;;;;;;;;;13.30;99.90;;;;;;5101424;28;19928;-69
2022/04/06 08:22:53;;;;;;;;;;;13.30;99.90;;;;;;5107706;28;20485;-69
2022/04/06 08:25:19;;;;;;;;;;;13.00;99.90;;;;;;5105248;28;20010;-69
2022/04/06 08:28:02;;;;;;;;;;;12.80;99.90;;;;;;5104274;28;19924;-69
2022/04/06 08:30:29;;;;;;;;;;;12.80;99.90;;;;;;5099099;28;20356;-69
2022/04/06 08:32:58;;;;;;;;;;;13.00;99.90;;;;;;5110698;28;19946;-70
2022/04/06 08:35:26;;;;;;;;;;;12.90;99.90;;;;;;5109045;28;20012;-69
2022/04/06 08:37:53;;;;;;;;;;;13.00;99.90;;;;;;5110412;28;19930;-69
2022/04/06 08:40:20;;;;;;;;;;;13.30;99.90;;;;;;5102855;28;19967;-69
2022/04/06 08:42:47;;;;;;;;;;;13.40;99.90;;;;;;5089937;28;20329;-69
2022/04/06 08:45:16;;;;;;;;;;;13.30;99.90;;;;;;5106505;28;19976;-69
2022/04/06 08:47:48;;;;;;;;;;;12.90;99.90;;;;;;5100709;28;19981;-69
2022/04/06 08:50:16;;;;;;;;;;;12.60;99.90;;;;;;5108860;28;20268;-68
2022/04/06 08:52:46;;;;;;;;;;;12.60;99.90;;;;;;5099239;28;20401;-69
2022/04/06 08:55:29;;;;;;;;;;;12.60;99.90;;;;;;5099479;28;19928;-68
2022/04/06 08:57:57;;;;;;;;;;;13.10;99.90;;;;;;5090860;28;19928;-68
2022/04/06 09:00:24;;;;;;;;;;;14.00;99.90;;;;;;5103217;28;19978;-69
2022/04/06 09:02:50;;;;;;;;;;;14.40;99.90;;;;;;5103267;28;20026;-68
2022/04/06 09:05:21;;;;;;;;;;;14.40;99.90;;;;;;5106523;28;19924;-68
2022/04/06 09:07:54;;;;;;;;;;;14.50;99.90;;;;;;5114359;28;19935;-68
2022/04/06 09:10:35;;;;;;;;;;;14.50;99.90;;;;;;5104422;28;20007;-68
2022/04/06 09:13:08;;;;;;;;;;;14.20;99.90;;;;;;5100102;28;19971;-68
2022/04/06 09:15:35;;;;;;;;;;;13.80;99.90;;;;;;5108561;28;20397;-68
2022/04/06 09:18:02;;;;;;;;;;;13.50;99.90;;;;;;5076339;28;19924;-68
2022/04/06 09:20:29;;;;;;;;;;;13.50;99.90;;;;;;5094881;28;20062;-68
2022/04/06 09:22:58;;;;;;;;;;;13.40;99.90;;;;;;5095314;28;20019;-68
2022/04/06 09:25:25;;;;;;;;;;;13.50;99.90;;;;;;5097742;28;20026;-68
2022/04/06 09:27:52;;;;;;;;;;;13.60;99.90;;;;;;5075582;28;19924;-68
2022/04/06 09:30:19;;;;;;;;;;;14.00;99.90;;;;;;5110370;28;19927;-69
2022/04/06 09:32:47;;;;;;;;;;;14.40;99.90;;;;;;5114596;28;19974;-68
2022/04/06 09:35:26;;;;;;;;;;;14.40;99.90;;;;;;5102555;28;19938;-68
2022/04/06 09:38:08;;;;;;;;;;;14.30;99.90;;;;;;5114179;28;20002;-68
2022/04/06 09:40:37;;;;;;;;;;;14.70;99.90;;;;;;5092411;28;20283;-68
2022/04/06 09:43:04;;;;;;;;;;;15.00;99.90;;;;;;5114256;28;20422;-68
2022/04/06 09:48:17;;;;;;;;;;;14.90;99.90;;;;;;5097963;28;20446;-68
2022/04/06 09:50:54;;;;;;;;;;;14.70;99.90;;;;;;5114240;28;20023;-68
2022/04/06 09:53:24;;;;;;;;;;;14.50;99.90;;;;;;5112802;28;19974;-68
2022/04/06 09:55:53;;;;;;;;;;;14.30;99.90;;;;;;5099242;28;19966;-68
2022/04/06 09:58:21;;;;;;;;;;;13.80;99.90;;;;;;5101537;28;19928;-68
2022/04/06 10:00:51;;;;;;;;;;;13.50;99.90;;;;;;5093565;28;19928;-68
2022/04/06 10:03:19;;;;;;;;;;;13.80;99.90;;;;;;5108469;28;19927;-68
2022/04/06 10:05:49;;;;;;;;;;;14.50;99.90;;;;;;5101363;28;20329;-68
2022/04/06 10:08:21;;;;;;;;;;;14.80;99.90;;;;;;5092487;28;19986;-68
2022/04/06 10:10:51;;;;;;;;;;;14.90;99.90;;;;;;5100209;28;20347;-68
2022/04/06 10:13:19;;;;;;;;;;;15.00;99.90;;;;;;5095791;28;20330;-68
2022/04/06 10:16:10;;;;;;;;;;;15.10;99.90;;;;;;5102799;28;19931;-68
2022/04/06 10:18:37;;;;;;;;;;;15.00;99.90;;;;;;5095022;28;19925;-68
2022/04/06 10:21:18;;;;;;;;;;;14.90;99.90;;;;;;5100219;28;19924;-68
2022/04/06 10:23:54;;;;;;;;;;;15.00;99.90;;;;;;5093657;28;20027;-68
2022/04/06 10:26:30;;;;;;;;;;;15.50;99.90;;;;;;5094024;28;20019;-68
2022/04/06 10:28:57;;;;;;;;;;;15.90;99.90;;;;;;5104464;28;20476;-68
2022/04/06 10:31:28;;;;;;;;;;;16.40;99.90;;;;;;5093739;28;19967;-68
2022/04/06 10:34:13;;;;;;;;;;;16.80;99.90;;;;;;5106706;28;20022;-67
2022/04/06 10:36:41;;;;;;;;;;;17.10;99.90;;;;;;5102998;28;20542;-67
2022/04/06 10:39:08;;;;;;;;;;;18.00;99.90;;;;;;5100613;28;20030;-67
2022/04/06 10:41:42;;;;;;;;;;;18.90;99.90;;;;;;5102501;28;20378;-66
2022/04/06 10:44:33;;;;;;;;;;;19.70;99.90;;;;;;5110496;28;19936;-66
2022/04/06 10:47:07;;;;;;;;;;;20.50;99.90;;;;;;5112689;28;20015;-67
2022/04/06 10:49:35;;;;;;;;;;;20.00;99.90;;;;;;5090497;28;20403;-67
2022/04/06 10:52:37;;;;;;;;;;;19.20;99.90;;;;;;5107228;28;19931;-67
2022/04/06 10:55:21;;;;;;;;;;;17.40;99.90;;;;;;5021601;28;19925;-68
2022/04/06 10:58:00;;;;;;;;;;;16.20;99.90;;;;;;5030977;28;19952;-68
2022/04/06 11:00:27;;;;;;;;;;;15.40;99.90;;;;;;5008349;28;19926;-69
2022/04/06 11:03:19;;;;;;;;;;;14.90;99.90;;;;;;5027431;28;19925;-67
2022/04/06 11:05:49;;;;;;;;;;;15.10;99.90;;;;;;5029256;28;19936;-67
2022/04/06 11:11:45;;;;;;;;;;;16.10;99.90;;;;;;5028755;28;20012;-67
2022/04/06 11:14:13;;;;;;;;;;;16.50;99.90;;;;;;5026984;28;20193;-67
2022/04/06 11:16:40;;;;;;;;;;;17.10;99.90;;;;;;5028551;28;19975;-67
2022/04/06 11:19:07;;;;;;;;;;;17.50;99.90;;;;;;5020021;28;20355;-67
2022/04/06 11:21:34;;;;;;;;;;;17.40;99.90;;;;;;5026003;28;20023;-67
2022/04/06 11:24:01;;;;;;;;;;;17.10;99.90;;;;;;5027591;28;19925;-67
2022/04/06 11:26:37;;;;;;;;;;;17.10;99.90;;;;;;5028425;28;19925;-67
2022/04/06 11:29:04;;;;;;;;;;;17.00;99.90;;;;;;5066870;28;19930;-67
2022/04/06 11:31:31;;;;;;;;;;;16.80;99.90;;;;;;5100664;28;20366;-67
2022/04/06 11:33:57;;;;;;;;;;;16.80;99.90;;;;;;5084045;28;19955;-67
2022/04/06 11:36:24;;;;;;;;;;;17.10;99.90;;;;;;5101973;28;19924;-67
2022/04/06 11:38:51;;;;;;;;;;;17.50;99.90;;;;;;5099104;28;20067;-67
2022/04/06 11:41:19;;;;;;;;;;;17.60;99.90;;;;;;5108364;28;20007;-67
2022/04/06 11:43:47;;;;;;;;;;;17.50;99.90;;;;;;5092532;28;19924;-67
2022/04/06 11:46:14;;;;;;;;;;;17.30;99.90;;;;;;5074300;28;20007;-67
2022/04/06 11:48:41;;;;;;;;;;;17.20;99.90;;;;;;5074081;28;19966;-68
2022/04/06 11:51:08;;;;;;;;;;;16.90;99.90;;;;;;5091946;28;19952;-68
2022/04/06 11:53:36;;;;;;;;;;;16.70;99.90;;;;;;5104833;28;19938;-69
2022/04/06 11:56:03;;;;;;;;;;;16.70;99.90;;;;;;5091607;28;19928;-68
2022/04/06 11:58:32;;;;;;;;;;;17.30;99.90;;;;;;5091040;28;19955;-68
2022/04/06 12:00:59;;;;;;;;;;;18.30;99.90;;;;;;5092057;28;20297;-65
2022/04/06 12:03:38;;;;;;;;;;;18.70;99.90;;;;;;5094839;28;20379;-67
2022/04/06 12:06:06;;;;;;;;;;;18.50;99.90;;;;;;5092191;28;19931;-66
2022/04/06 12:08:34;;;;;;;;;;;18.10;99.90;;;;;;5091119;28;19970;-65
2022/04/06 12:11:00;;;;;;;;;;;18.00;99.90;;;;;;5093287;28;19928;-68
2022/04/06 12:13:28;;;;;;;;;;;17.70;99.90;;;;;;5095449;28;20428;-67
2022/04/06 12:15:56;;;;;;;;;;;17.80;99.90;;;;;;5111897;28;19930;-67
2022/04/06 12:18:27;;;;;;;;;;;17.80;99.90;;;;;;5092926;28;19923;-65
2022/04/06 12:20:57;;;;;;;;;;;18.20;99.90;;;;;;5089477;28;19934;-65
2022/04/06 12:23:25;;;;;;;;;;;18.00;99.90;;;;;;5088208;28;20016;-68
2022/04/06 12:25:56;;;;;;;;;;;18.10;99.90;;;;;;5100628;28;19924;-65
2022/04/06 12:28:29;;;;;;;;;;;18.80;99.90;;;;;;5092466;28;19978;-65
2022/04/06 12:31:05;;;;;;;;;;;19.10;99.90;;;;;;5099872;28;19924;-66
2022/04/06 12:33:32;;;;;;;;;;;18.90;99.90;;;;;;5091690;28;20390;-66
2022/04/06 12:36:17;;;;;;;;;;;19.30;99.90;;;;;;5094220;28;19924;-65
2022/04/06 12:39:08;;;;;;;;;;;18.50;99.90;;;;;;5099507;28;20018;-65
2022/04/06 12:41:50;;;;;;;;;;;16.90;99.90;;;;;;5104589;28;20015;-68
2022/04/06 12:44:17;;;;;;;;;;;16.10;99.90;;;;;;5090592;28;19954;-68
2022/04/06 12:46:47;;;;;;;;;;;15.70;99.90;;;;;;5091044;28;20316;-68
2022/04/06 12:49:16;;;;;;;;;;;15.40;99.90;;;;;;5108589;28;20336;-68
2022/04/06 12:51:45;;;;;;;;;;;15.70;99.90;;;;;;5107951;28;19927;-66
2022/04/06 12:54:17;;;;;;;;;;;15.70;99.90;;;;;;5091910;28;19951;-66
2022/04/06 12:57:02;;;;;;;;;;;15.60;99.90;;;;;;5073081;28;19924;-66
2022/04/06 12:59:48;;;;;;;;;;;15.70;99.90;;;;;;5090340;28;19967;-66
2022/04/06 13:02:19;;;;;;;;;;;16.00;99.90;;;;;;5101046;28;19924;-66
2022/04/06 13:04:49;;;;;;;;;;;15.70;99.90;;;;;;5111856;28;19946;-65
2022/04/06 13:07:16;;;;;;;;;;;15.90;99.90;;;;;;5101699;28;20357;-67
2022/04/06 13:10:06;;;;;;;;;;;16.10;99.90;;;;;;5109822;28;19938;-66
2022/04/06 13:12:33;;;;;;;;;;;16.20;99.90;;;;;;5095240;28;19924;-66
2022/04/06 13:15:01;;;;;;;;;;;16.10;99.90;;;;;;5101780;28;19935;-66
2022/04/06 13:17:28;;;;;;;;;;;16.00;99.90;;;;;;5090040;28;19974;-66
2022/04/06 13:19:55;;;;;;;;;;;16.10;99.90;;;;;;5090223;28;19951;-66
2022/04/06 13:22:22;;;;;;;;;;;15.90;99.90;;;;;;5092295;28;19970;-66
2022/04/06 13:24:48;;;;;;;;;;;15.40;99.90;;;;;;5090421;28;20325;-66
2022/04/06 13:27:15;;;;;;;;;;;15.20;99.90;;;;;;5091142;28;19932;-66
2022/04/06 13:29:42;;;;;;;;;;;15.40;99.90;;;;;;5110372;28;19974;-66
2022/04/06 13:32:09;;;;;;;;;;;16.00;99.90;;;;;;5105552;28;19924;-66
2022/04/06 13:34:36;;;;;;;;;;;17.00;99.90;;;;;;5095406;28;20406;-66
2022/04/06 13:37:03;;;;;;;;;;;17.70;99.90;;;;;;5099724;28;20322;-66
2022/04/06 13:39:29;;;;;;;;;;;18.20;99.90;;;;;;5109550;28;20409;-66
2022/04/06 13:41:56;;;;;;;;;;;18.60;99.90;;;;;;5105672;28;19931;-66
2022/04/06 13:44:24;;;;;;;;;;;18.70;99.90;;;;;;5094993;28;19924;-66
2022/04/06 13:46:52;;;;;;;;;;;18.70;99.90;;;;;;5093954;28;20032;-66
2022/04/06 13:49:21;;;;;;;;;;;18.30;99.90;;;;;;5093644;28;19935;-67
2022/04/06 13:51:50;;;;;;;;;;;18.10;99.90;;;;;;5111342;28;19940;-66
2022/04/06 13:54:17;;;;;;;;;;;17.30;99.90;;;;;;5100768;28;19923;-66
2022/04/06 13:56:47;;;;;;;;;;;16.70;99.90;;;;;;5093273;28;19924;-66
2022/04/06 13:59:14;;;;;;;;;;;16.10;99.90;;;;;;5096088;28;20401;-66
2022/04/06 14:01:41;;;;;;;;;;;15.60;99.90;;;;;;5114407;28;19959;-66
2022/04/06 14:04:08;;;;;;;;;;;15.40;99.90;;;;;;5111822;28;19939;-66
2022/04/06 14:06:35;;;;;;;;;;;15.50;99.90;;;;;;5109490;28;19932;-67
2022/04/06 14:09:03;;;;;;;;;;;16.00;99.90;;;;;;5076164;28;20006;-66
2022/04/06 14:11:30;;;;;;;;;;;17.10;99.90;;;;;;5093593;28;19924;-67
2022/04/06 14:13:57;;;;;;;;;;;17.60;99.90;;;;;;5098222;28;19923;-66
2022/04/06 14:16:24;;;;;;;;;;;17.10;99.90;;;;;;5100596;28;19971;-66
2022/04/06 14:18:55;;;;;;;;;;;17.00;99.90;;;;;;5093991;28;19931;-66
2022/04/06 14:21:22;;;;;;;;;;;16.80;99.90;;;;;;5082387;28;19927;-66
2022/04/06 14:23:50;;;;;;;;;;;16.10;99.90;;;;;;5093218;28;19925;-66
2022/04/06 14:26:17;;;;;;;;;;;15.40;99.90;;;;;;5075866;28;20393;-66
2022/04/06 14:28:44;;;;;;;;;;;15.00;99.90;;;;;;5103614;28;19932;-66
2022/04/06 14:31:11;;;;;;;;;;;14.70;99.90;;;;;;5087685;28;19924;-66
2022/04/06 14:33:37;;;;;;;;;;;14.70;99.90;;;;;;5094859;28;19934;-66
2022/04/06 14:36:06;;;;;;;;;;;15.00;99.90;;;;;;5079664;28;19930;-66
2022/04/06 14:38:33;;;;;;;;;;;15.40;99.90;;;;;;5096817;28;19924;-69
2022/04/06 14:41:00;;;;;;;;;;;15.50;99.90;;;;;;5098960;28;19954;-66
2022/04/06 14:43:27;;;;;;;;;;;15.40;99.90;;;;;;5092194;28;19928;-66